createdAt,value
2022-10-07T00:02:19.015Z,41.05
2022-10-07T00:07:20.872Z,40.98
2022-10-07T00:12:22.324Z,40.90
2022-10-07T00:17:23.764Z,40.88
2022-10-07T00:22:25.202Z,40.87
2022-10-07T00:27:26.643Z,40.88
2022-10-07T00:32:28.096Z,40.90
2022-10-07T00:37:29.476Z,40.70
2022-10-07T00:42:32.205Z,40.60
2022-10-07T00:47:34.196Z,40.54
2022-10-07T00:52:38.857Z,40.52
2022-10-07T00:57:40.220Z,40.41
2022-10-07T01:02:41.666Z,40.28
2022-10-07T01:07:43.808Z,40.39
2022-10-07T01:13:10.441Z,40.31
2022-10-07T01:18:17.477Z,40.30
2022-10-07T01:23:21.868Z,40.42
2022-10-07T01:28:37.622Z,40.24
2022-10-07T01:33:39.072Z,40.12
2022-10-07T01:38:42.942Z,40.19
2022-10-07T01:43:44.808Z,39.96
2022-10-07T01:48:46.437Z,39.94
2022-10-07T01:53:51.876Z,39.88
2022-10-07T01:59:23.932Z,39.93
2022-10-07T02:04:43.385Z,39.98
2022-10-07T02:09:58.764Z,39.71
2022-10-07T02:15:19.918Z,39.57
2022-10-07T02:20:23.277Z,39.78
2022-10-07T02:25:24.633Z,39.63
2022-10-07T02:30:26.000Z,39.63
2022-10-07T02:35:47.925Z,39.54
2022-10-07T02:40:55.205Z,39.58
2022-10-07T02:46:24.188Z,39.48
2022-10-07T02:51:27.624Z,39.59
2022-10-07T02:56:28.992Z,39.37
2022-10-07T03:01:31.662Z,39.41
2022-10-07T03:06:35.129Z,39.28
2022-10-07T03:11:38.034Z,39.29
2022-10-07T03:16:39.402Z,39.16
2022-10-07T03:21:41.116Z,39.19
2022-10-07T03:26:42.473Z,39.13
2022-10-07T03:31:43.886Z,39.09
2022-10-07T03:36:45.336Z,39.18
2022-10-07T03:41:48.764Z,38.97
2022-10-07T03:46:50.870Z,39.29
2022-10-07T03:51:52.497Z,38.91
2022-10-07T03:56:53.853Z,39.01
2022-10-07T04:01:55.272Z,39.01
2022-10-07T04:06:56.668Z,38.99
2022-10-07T04:11:58.028Z,38.91
2022-10-07T04:16:59.392Z,38.85
2022-10-07T04:22:02.950Z,38.85
2022-10-07T04:27:10.129Z,38.74
2022-10-07T04:32:11.492Z,38.76
2022-10-07T04:37:12.865Z,38.74
2022-10-07T04:42:34.210Z,38.63
2022-10-07T04:47:35.578Z,38.73
2022-10-07T04:52:40.237Z,38.62
2022-10-07T04:57:42.084Z,38.53
2022-10-07T05:02:46.257Z,38.50
2022-10-07T05:07:51.006Z,38.36
2022-10-07T05:12:55.933Z,38.35
2022-10-07T05:17:57.650Z,38.32
2022-10-07T05:22:59.019Z,38.42
2022-10-07T05:28:00.519Z,38.43
2022-10-07T05:33:02.696Z,38.33
2022-10-07T05:38:08.465Z,38.58
2022-10-07T05:43:10.212Z,38.43
2022-10-07T05:48:11.585Z,38.49
2022-10-07T05:53:12.944Z,38.52
2022-10-07T05:58:14.317Z,38.36
2022-10-07T06:03:15.760Z,38.61
2022-10-07T06:08:19.084Z,38.65
2022-10-07T06:13:20.446Z,38.25
2022-10-07T06:18:21.813Z,38.23
2022-10-07T06:23:23.204Z,38.18
2022-10-07T06:28:24.756Z,38.04
2022-10-07T06:33:26.117Z,38.22
2022-10-07T06:38:27.474Z,38.28
2022-10-07T06:43:29.456Z,38.04
2022-10-07T06:48:32.745Z,38.25
2022-10-07T06:53:34.109Z,38.37
2022-10-07T06:58:35.514Z,38.31
2022-10-07T07:03:36.872Z,38.41
2022-10-07T07:08:38.597Z,38.31
2022-10-07T07:13:42.544Z,38.38
2022-10-07T07:18:53.945Z,38.40
2022-10-07T07:23:55.358Z,38.35
2022-10-07T07:29:01.157Z,38.37
2022-10-07T07:34:03.220Z,38.33
2022-10-07T07:39:07.141Z,38.56
2022-10-07T07:44:11.069Z,38.30
2022-10-07T07:49:12.930Z,38.40
2022-10-07T07:54:14.375Z,38.30
2022-10-07T07:59:16.425Z,38.47
2022-10-07T08:04:17.780Z,38.71
2022-10-07T08:09:19.144Z,38.55
2022-10-07T08:14:22.668Z,38.66
2022-10-07T08:19:24.041Z,38.96
2022-10-07T08:24:25.681Z,38.97
2022-10-07T08:29:27.041Z,39.05
2022-10-07T08:34:28.516Z,39.07
2022-10-07T08:39:31.017Z,39.30
2022-10-07T08:44:40.767Z,39.35
2022-10-07T08:50:04.210Z,39.41
2022-10-07T08:55:18.531Z,39.49
2022-10-07T09:00:20.192Z,39.76
2022-10-07T09:05:26.803Z,39.74
2022-10-07T09:10:34.506Z,39.83
2022-10-07T09:15:45.268Z,39.92
2022-10-07T09:20:53.445Z,39.80
2022-10-07T09:25:54.805Z,40.34
2022-10-07T09:30:59.375Z,40.37
2022-10-07T09:36:09.006Z,40.60
2022-10-07T09:41:20.388Z,40.41
2022-10-07T09:46:46.707Z,40.42
2022-10-07T09:51:58.364Z,40.67
2022-10-07T09:57:00.970Z,40.40
2022-10-07T10:02:15.404Z,40.58
2022-10-07T10:07:23.890Z,40.30
2022-10-07T10:12:25.525Z,40.37
2022-10-07T10:17:32.239Z,40.33
2022-10-07T10:22:33.605Z,40.23
2022-10-07T10:27:40.285Z,40.29
2022-10-07T10:33:01.043Z,40.22
2022-10-07T10:38:18.278Z,40.41
2022-10-07T10:43:26.409Z,40.41
2022-10-07T10:48:44.024Z,40.34
2022-10-07T10:54:05.490Z,40.41
2022-10-07T10:59:36.775Z,40.05
2022-10-07T11:04:51.546Z,39.98
2022-10-07T11:10:03.191Z,39.86
2022-10-07T11:15:25.345Z,39.99
2022-10-07T11:20:35.164Z,40.09
2022-10-07T11:25:38.069Z,39.92
2022-10-07T11:30:45.330Z,40.05
2022-10-07T11:35:49.410Z,40.16
2022-10-07T11:40:53.088Z,40.12
2022-10-07T11:45:56.716Z,40.10
2022-10-07T11:51:01.164Z,40.12
2022-10-07T11:56:25.914Z,40.24
2022-10-07T12:01:30.496Z,40.42
2022-10-07T12:06:31.864Z,40.51
2022-10-07T12:11:33.053Z,40.67
2022-10-07T12:16:34.312Z,40.67
2022-10-07T12:22:05.444Z,40.52
2022-10-07T12:27:14.361Z,40.86
2022-10-07T12:32:50.227Z,40.76
2022-10-07T12:38:23.379Z,40.97
2022-10-07T12:43:49.848Z,41.07
2022-10-07T12:49:01.328Z,41.15
2022-10-07T12:54:02.717Z,40.77
2022-10-07T12:59:31.697Z,40.94
2022-10-07T13:05:05.752Z,41.01
2022-10-07T13:10:45.661Z,41.07
2022-10-07T13:15:59.572Z,41.13
2022-10-07T13:21:21.933Z,41.09
2022-10-07T13:26:24.801Z,41.19
2022-10-07T13:31:27.947Z,41.27
2022-10-07T13:36:30.143Z,41.13
2022-10-07T13:41:31.502Z,41.28
2022-10-07T13:46:33.945Z,41.19
2022-10-07T13:51:36.525Z,41.14
2022-10-07T13:56:39.753Z,41.15
2022-10-07T14:01:41.154Z,41.24
2022-10-07T14:07:12.665Z,41.25
2022-10-07T14:12:15.375Z,41.20
2022-10-07T14:17:30.592Z,41.43
2022-10-07T14:22:36.178Z,41.35
2022-10-07T14:27:53.842Z,41.45
2022-10-07T14:33:32.888Z,41.28
2022-10-07T14:38:34.251Z,41.21
2022-10-07T14:43:35.882Z,41.37
2022-10-07T14:48:37.718Z,41.30
2022-10-07T14:53:40.234Z,41.14
2022-10-07T14:58:42.358Z,41.16
2022-10-07T15:03:43.754Z,41.16
2022-10-07T15:08:47.203Z,41.27
2022-10-07T15:13:49.077Z,41.10
2022-10-07T15:18:52.733Z,41.39
2022-10-07T15:23:54.620Z,41.25
2022-10-07T15:28:57.088Z,41.13
2022-10-07T15:33:58.601Z,41.29
2022-10-07T15:39:02.662Z,41.22
2022-10-07T15:44:05.878Z,41.21
2022-10-07T15:49:07.418Z,41.24
2022-10-07T15:54:10.005Z,41.38
2022-10-07T15:59:11.369Z,41.38
2022-10-07T16:04:12.999Z,41.51
2022-10-07T16:09:14.767Z,41.52
2022-10-07T16:14:16.187Z,41.63
2022-10-07T16:19:17.658Z,41.75
2022-10-07T16:24:20.525Z,41.80
2022-10-07T16:29:40.786Z,41.84
2022-10-07T16:34:44.180Z,41.80
2022-10-07T16:39:45.537Z,41.70
2022-10-07T16:44:50.604Z,41.94
2022-10-07T16:49:52.228Z,42.18
2022-10-07T16:54:53.589Z,42.19
2022-10-07T16:59:55.378Z,42.40
2022-10-07T17:04:56.788Z,42.49
2022-10-07T17:09:58.145Z,42.47
2022-10-07T17:15:00.069Z,42.55
2022-10-07T17:20:01.425Z,42.61
2022-10-07T17:25:03.819Z,42.67
2022-10-07T17:30:05.623Z,43.03
2022-10-07T17:35:08.372Z,42.91
2022-10-07T17:40:10.077Z,43.08
2022-10-07T17:45:12.078Z,43.11
2022-10-07T17:50:15.543Z,43.35
2022-10-07T17:55:16.907Z,43.26
2022-10-07T18:00:18.837Z,43.41
2022-10-07T18:05:20.197Z,43.55
2022-10-07T18:10:21.561Z,43.33
2022-10-07T18:15:23.128Z,43.60
2022-10-07T18:20:28.365Z,43.33
2022-10-07T18:25:29.723Z,43.45
2022-10-07T18:30:31.090Z,43.57
2022-10-07T18:35:32.480Z,43.38
2022-10-07T18:40:33.868Z,43.59
2022-10-07T18:45:35.297Z,43.72
2022-10-07T18:50:36.713Z,43.61
2022-10-07T18:55:41.076Z,43.54
2022-10-07T19:00:42.608Z,43.34
2022-10-07T19:05:44.085Z,43.44
2022-10-07T19:10:46.633Z,43.42
2022-10-07T19:15:47.996Z,43.52
2022-10-07T19:20:56.875Z,43.50
2022-10-07T19:25:58.585Z,43.67
2022-10-07T19:31:11.927Z,43.57
2022-10-07T19:36:13.776Z,43.69
2022-10-07T19:41:15.537Z,43.59
2022-10-07T19:46:17.232Z,43.54
2022-10-07T19:51:19.387Z,43.59
2022-10-07T19:56:22.744Z,43.82
2022-10-07T20:01:25.952Z,43.83
2022-10-07T20:06:27.544Z,43.89
2022-10-07T20:11:28.905Z,43.95
2022-10-07T20:16:30.948Z,43.98
2022-10-07T20:21:34.352Z,43.69
2022-10-07T20:26:37.267Z,43.77
2022-10-07T20:31:39.736Z,44.20
2022-10-07T20:36:41.872Z,44.03
2022-10-07T20:42:01.505Z,44.08
2022-10-07T20:47:04.176Z,44.06
2022-10-07T20:52:07.058Z,44.08
2022-10-07T20:57:08.481Z,44.07
2022-10-07T21:02:10.672Z,44.00
2022-10-07T21:07:12.721Z,44.21
2022-10-07T21:12:15.193Z,44.40
2022-10-07T21:17:16.869Z,44.25
2022-10-07T21:22:18.275Z,44.27
2022-10-07T21:27:19.653Z,44.34
2022-10-07T21:32:21.059Z,44.41
2022-10-07T21:37:22.427Z,44.36
2022-10-07T21:42:24.832Z,44.43
2022-10-07T21:47:26.697Z,44.31
2022-10-07T21:52:29.245Z,44.30
2022-10-07T21:57:30.602Z,44.74
2022-10-07T22:02:33.083Z,44.64
2022-10-07T22:07:53.093Z,44.65
2022-10-07T22:12:54.456Z,44.45
2022-10-07T22:17:56.393Z,44.81
2022-10-07T22:22:59.946Z,44.78
2022-10-07T22:28:01.571Z,44.54
2022-10-07T22:33:02.983Z,44.64
2022-10-07T22:38:04.357Z,44.61
2022-10-07T22:43:05.750Z,44.79
2022-10-07T22:48:07.109Z,44.60
2022-10-07T22:53:08.473Z,44.82
2022-10-07T22:58:09.913Z,44.68
2022-10-07T23:03:12.502Z,44.84
2022-10-07T23:08:13.993Z,44.62
2022-10-07T23:13:15.363Z,44.68
2022-10-07T23:18:16.761Z,44.60
2022-10-07T23:23:18.140Z,44.70
2022-10-07T23:28:20.695Z,44.79
2022-10-07T23:33:22.083Z,44.55
2022-10-07T23:38:26.197Z,44.58
2022-10-07T23:43:27.736Z,44.92
2022-10-07T23:48:33.325Z,44.75
2022-10-07T23:53:34.832Z,44.52
2022-10-07T23:58:36.252Z,44.75
